createdAt,value
2019-03-28T00:01:42.707Z,18.27
2019-03-28T00:04:11.208Z,17.63
2019-03-28T00:06:39.877Z,17.63
2019-03-28T00:09:09.232Z,18.10
2019-03-28T00:11:40.698Z,19.03
2019-03-28T00:14:09.256Z,18.77
2019-03-28T00:16:37.862Z,18.13
2019-03-28T00:19:06.437Z,18.00
2019-03-28T00:21:34.926Z,18.23
2019-03-28T00:24:10.989Z,18.37
2019-03-28T00:26:39.664Z,18.00
2019-03-28T00:29:08.216Z,20.27
2019-03-28T00:31:36.827Z,19.87
2019-03-28T00:34:08.143Z,20.70
2019-03-28T00:36:36.761Z,18.90
2019-03-28T00:39:07.198Z,18.20
2019-03-28T00:41:35.845Z,15.57
2019-03-28T00:44:04.477Z,16.10
2019-03-28T00:46:33.051Z,16.30
2019-03-28T00:49:01.684Z,15.00
2019-03-28T00:51:30.330Z,14.70
2019-03-28T00:53:58.961Z,13.80
2019-03-28T00:56:27.664Z,12.90
2019-03-28T00:58:56.277Z,12.70
2019-03-28T01:01:24.835Z,11.97
2019-03-28T01:03:53.513Z,12.10
2019-03-28T01:06:22.144Z,11.90
2019-03-28T01:08:50.708Z,12.07
2019-03-28T01:11:19.310Z,11.20
2019-03-28T01:13:48.014Z,11.97
2019-03-28T01:16:16.703Z,11.83
2019-03-28T01:18:45.482Z,12.33
2019-03-28T01:21:14.136Z,14.07
2019-03-28T01:23:42.745Z,12.87
2019-03-28T01:26:11.378Z,13.40
2019-03-28T01:28:40.050Z,12.97
2019-03-28T01:31:08.619Z,14.40
2019-03-28T01:33:37.190Z,13.90
2019-03-28T01:36:05.885Z,13.80
2019-03-28T01:38:34.454Z,14.47
2019-03-28T01:41:03.014Z,16.13
2019-03-28T01:43:31.660Z,14.80
2019-03-28T01:46:00.304Z,14.70
2019-03-28T01:48:31.625Z,14.50
2019-03-28T01:51:00.263Z,16.37
2019-03-28T01:53:28.962Z,16.47
2019-03-28T01:55:57.567Z,17.97
2019-03-28T01:58:26.122Z,19.17
2019-03-28T02:00:54.804Z,18.10
2019-03-28T02:03:23.478Z,20.17
2019-03-28T02:05:52.045Z,19.93
2019-03-28T02:08:20.716Z,19.07
2019-03-28T02:10:49.553Z,20.53
2019-03-28T02:13:19.611Z,19.83
2019-03-28T02:15:48.172Z,21.20
2019-03-28T02:18:16.772Z,21.43
2019-03-28T02:20:45.423Z,22.70
2019-03-28T02:23:14.051Z,20.57
2019-03-28T02:25:43.432Z,22.60
2019-03-28T02:28:12.086Z,20.73
2019-03-28T02:30:40.716Z,23.07
2019-03-28T02:33:09.329Z,23.17
2019-03-28T02:35:37.973Z,26.47
2019-03-28T02:38:06.569Z,24.27
2019-03-28T02:40:35.207Z,25.50
2019-03-28T02:43:03.891Z,26.57
2019-03-28T02:45:32.522Z,27.67
2019-03-28T02:48:01.776Z,28.10
2019-03-28T02:50:30.685Z,28.57
2019-03-28T02:52:59.226Z,27.37
2019-03-28T02:55:27.894Z,27.50
2019-03-28T02:57:56.446Z,29.10
2019-03-28T03:00:25.088Z,26.67
2019-03-28T03:02:53.658Z,29.10
2019-03-28T03:05:22.287Z,28.07
2019-03-28T03:07:50.962Z,29.93
2019-03-28T03:10:19.653Z,28.20
2019-03-28T03:12:48.296Z,29.07
2019-03-28T03:15:16.926Z,28.27
2019-03-28T03:17:45.597Z,29.27
2019-03-28T03:20:14.429Z,30.77
2019-03-28T03:22:43.034Z,30.80
2019-03-28T03:25:11.671Z,29.23
2019-03-28T03:27:56.363Z,30.57
2019-03-28T03:30:10.807Z,30.13
2019-03-28T03:32:39.398Z,30.17
2019-03-28T03:35:08.500Z,30.43
2019-03-28T03:37:37.081Z,30.67
2019-03-28T03:40:08.467Z,29.07
2019-03-28T03:42:37.128Z,29.70
2019-03-28T03:45:09.060Z,26.70
2019-03-28T03:47:38.177Z,25.27
2019-03-28T03:50:07.531Z,22.27
2019-03-28T03:52:36.128Z,19.70
2019-03-28T03:55:06.570Z,16.77
2019-03-28T03:57:35.156Z,17.03
2019-03-28T04:00:05.752Z,15.70
2019-03-28T04:02:34.427Z,15.00
2019-03-28T04:05:02.998Z,13.07
2019-03-28T04:07:31.712Z,12.17
2019-03-28T04:10:00.594Z,11.07
2019-03-28T04:12:29.259Z,10.80
2019-03-28T04:14:57.943Z,11.57
2019-03-28T04:17:26.507Z,11.97
2019-03-28T04:19:58.770Z,10.73
2019-03-28T04:22:27.567Z,10.80
2019-03-28T04:24:56.205Z,10.33
2019-03-28T04:27:24.780Z,10.40
2019-03-28T04:29:53.465Z,9.73
2019-03-28T04:32:22.086Z,8.97
2019-03-28T04:34:50.768Z,8.60
2019-03-28T04:37:19.382Z,8.17
2019-03-28T04:39:48.058Z,7.40
2019-03-28T04:42:16.706Z,7.33
2019-03-28T04:44:45.265Z,6.20
2019-03-28T04:47:13.777Z,6.87
2019-03-28T04:49:42.337Z,6.60
2019-03-28T04:52:11.011Z,6.97
2019-03-28T04:54:39.509Z,6.70
2019-03-28T04:57:08.035Z,6.67
2019-03-28T04:59:36.529Z,7.00
2019-03-28T05:02:05.427Z,7.10
2019-03-28T05:04:34.020Z,5.93
2019-03-28T05:07:02.570Z,6.30
2019-03-28T05:09:31.997Z,5.57
2019-03-28T05:12:00.670Z,5.37
2019-03-28T05:14:29.232Z,6.30
2019-03-28T05:16:57.845Z,5.93
2019-03-28T05:19:26.442Z,5.43
2019-03-28T05:21:55.074Z,5.20
2019-03-28T05:24:25.481Z,4.73
2019-03-28T05:26:54.171Z,5.10
2019-03-28T05:29:22.799Z,4.53
2019-03-28T05:31:51.450Z,4.60
2019-03-28T05:34:19.968Z,5.43
2019-03-28T05:36:51.920Z,4.53
2019-03-28T05:39:19.653Z,4.30
2019-03-28T05:41:48.555Z,4.70
2019-03-28T05:44:17.110Z,4.13
2019-03-28T05:46:45.781Z,4.30
2019-03-28T05:49:14.453Z,4.83
2019-03-28T05:51:42.943Z,5.57
2019-03-28T05:54:11.468Z,4.70
2019-03-28T05:56:40.094Z,4.93
2019-03-28T05:59:11.210Z,5.17
2019-03-28T06:01:39.115Z,5.03
2019-03-28T06:04:08.367Z,4.60
2019-03-28T06:06:37.036Z,5.37
2019-03-28T06:09:07.581Z,6.50
2019-03-28T06:11:42.548Z,5.17
2019-03-28T06:14:11.325Z,5.13
2019-03-28T06:16:43.530Z,8.40
2019-03-28T06:19:12.422Z,4.73
2019-03-28T06:21:44.006Z,4.70
2019-03-28T06:24:14.362Z,4.40
2019-03-28T06:26:43.314Z,4.60
2019-03-28T06:29:23.166Z,4.20
2019-03-28T06:31:54.581Z,4.43
2019-03-28T06:34:13.063Z,5.80
2019-03-28T06:36:44.748Z,4.03
2019-03-28T06:39:21.810Z,4.80
2019-03-28T06:41:50.922Z,5.13
2019-03-28T06:44:19.762Z,4.30
2019-03-28T06:46:48.437Z,4.80
2019-03-28T06:49:17.170Z,5.20
2019-03-28T06:51:45.799Z,4.60
2019-03-28T06:54:16.006Z,4.30
2019-03-28T06:56:44.963Z,5.93
2019-03-28T06:59:13.668Z,4.80
2019-03-28T07:01:46.798Z,6.50
2019-03-28T07:04:21.824Z,5.60
2019-03-28T07:06:52.680Z,4.83
2019-03-28T07:09:26.155Z,5.03
2019-03-28T07:12:01.098Z,5.17
2019-03-28T07:14:31.858Z,5.33
2019-03-28T07:17:00.685Z,5.23
2019-03-28T07:19:29.324Z,6.40
2019-03-28T07:21:58.038Z,4.53
2019-03-28T07:24:26.690Z,4.23
2019-03-28T07:26:55.474Z,5.93
2019-03-28T07:29:27.554Z,5.83
2019-03-28T07:31:57.875Z,6.43
2019-03-28T07:34:26.664Z,7.57
2019-03-28T07:36:55.603Z,5.00
2019-03-28T07:39:32.037Z,5.73
2019-03-28T07:42:01.029Z,5.40
2019-03-28T07:44:29.847Z,5.90
2019-03-28T07:46:58.752Z,9.00
2019-03-28T07:49:30.798Z,6.13
2019-03-28T07:51:59.799Z,6.73
2019-03-28T07:54:28.893Z,6.97
2019-03-28T07:56:57.760Z,7.07
2019-03-28T07:59:26.501Z,6.53
2019-03-28T08:01:55.146Z,8.43
2019-03-28T08:04:23.681Z,6.13
2019-03-28T08:06:52.316Z,9.73
2019-03-28T08:09:20.863Z,6.83
2019-03-28T08:11:49.421Z,6.97
2019-03-28T08:14:18.052Z,6.43
2019-03-28T08:16:46.720Z,6.27
2019-03-28T08:19:15.350Z,6.87
2019-03-28T08:21:43.966Z,6.40
2019-03-28T08:24:12.662Z,7.10
2019-03-28T08:26:41.779Z,5.93
2019-03-28T08:29:10.622Z,6.93
2019-03-28T08:31:41.814Z,6.33
2019-03-28T08:34:12.334Z,5.30
2019-03-28T08:36:41.485Z,5.43
2019-03-28T08:39:10.410Z,6.17
2019-03-28T08:41:39.427Z,6.57
2019-03-28T08:44:08.238Z,5.37
2019-03-28T08:46:37.373Z,6.83
2019-03-28T08:49:07.230Z,6.37
2019-03-28T08:51:39.242Z,6.63
2019-03-28T08:54:08.160Z,6.23
2019-03-28T08:56:38.521Z,6.00
2019-03-28T08:59:09.836Z,6.70
2019-03-28T09:01:41.433Z,6.67
2019-03-28T09:04:10.184Z,5.83
2019-03-28T09:06:40.828Z,6.73
2019-03-28T09:09:12.179Z,5.93
2019-03-28T09:11:45.875Z,6.03
2019-03-28T09:14:14.658Z,6.20
2019-03-28T09:16:46.198Z,10.47
2019-03-28T09:19:14.868Z,7.63
2019-03-28T09:21:43.646Z,7.20
2019-03-28T09:24:12.409Z,6.73
2019-03-28T09:26:41.134Z,8.00
2019-03-28T09:29:09.883Z,7.40
2019-03-28T09:31:41.599Z,5.43
2019-03-28T09:34:10.430Z,6.77
2019-03-28T09:36:39.177Z,7.30
2019-03-28T09:39:10.256Z,6.90
2019-03-28T09:41:40.403Z,7.30
2019-03-28T09:44:09.108Z,8.33
2019-03-28T09:46:37.904Z,7.90
2019-03-28T09:49:06.606Z,6.90
2019-03-28T09:51:35.512Z,6.73
2019-03-28T09:54:04.258Z,7.10
2019-03-28T09:56:37.297Z,7.33
2019-03-28T09:59:06.028Z,6.97
2019-03-28T10:01:34.703Z,8.30
2019-03-28T10:04:06.291Z,7.17
2019-03-28T10:06:33.685Z,6.20
2019-03-28T10:09:02.360Z,6.30
2019-03-28T10:11:31.000Z,6.87
2019-03-28T10:13:59.618Z,6.63
2019-03-28T10:16:28.464Z,6.87
2019-03-28T10:18:57.099Z,8.67
2019-03-28T10:21:25.846Z,11.07
2019-03-28T10:23:54.475Z,8.03
2019-03-28T10:26:23.446Z,7.57
2019-03-28T10:28:55.261Z,7.20
2019-03-28T10:31:23.893Z,7.13
2019-03-28T10:33:52.615Z,6.70
2019-03-28T10:36:21.356Z,7.13
2019-03-28T10:38:50.153Z,7.00
2019-03-28T10:41:18.814Z,7.00
2019-03-28T10:43:47.548Z,6.67
2019-03-28T10:46:16.259Z,7.03
2019-03-28T10:48:44.932Z,7.55
2019-03-28T10:51:13.563Z,8.20
2019-03-28T10:53:42.267Z,8.07
2019-03-28T10:56:21.480Z,6.30
2019-03-28T10:58:41.361Z,6.70
2019-03-28T11:01:10.107Z,6.70
2019-03-28T11:03:38.820Z,7.53
2019-03-28T11:06:07.643Z,7.93
2019-03-28T11:08:36.750Z,7.60
2019-03-28T11:11:05.598Z,7.70
2019-03-28T11:13:34.623Z,8.13
2019-03-28T11:16:03.765Z,8.77
2019-03-28T11:18:32.950Z,7.47
2019-03-28T11:21:02.114Z,8.00
2019-03-28T11:23:31.162Z,8.17
2019-03-28T11:26:00.486Z,8.53
2019-03-28T11:28:29.770Z,6.97
2019-03-28T11:30:59.058Z,7.90
2019-03-28T11:33:28.181Z,6.80
2019-03-28T11:35:59.382Z,7.37
2019-03-28T11:38:30.865Z,7.87
2019-03-28T11:41:00.105Z,7.80
2019-03-28T11:43:31.219Z,8.07
2019-03-28T11:46:01.931Z,8.00
2019-03-28T11:48:31.595Z,8.10
2019-03-28T11:51:01.175Z,7.67
2019-03-28T11:53:30.028Z,7.70
2019-03-28T11:56:00.659Z,9.10
2019-03-28T11:58:29.467Z,9.00
2019-03-28T12:01:01.781Z,8.47
2019-03-28T12:03:36.402Z,8.37
2019-03-28T12:06:16.946Z,7.17
2019-03-28T12:08:46.135Z,7.90
2019-03-28T12:11:16.573Z,8.13
2019-03-28T12:13:45.507Z,7.27
2019-03-28T12:16:17.348Z,6.70
2019-03-28T12:18:46.202Z,6.33
2019-03-28T12:21:15.101Z,6.45
2019-03-28T12:23:44.018Z,6.78
2019-03-28T12:26:14.428Z,7.80
2019-03-28T12:28:43.327Z,7.97
2019-03-28T12:31:12.226Z,6.97
2019-03-28T12:33:43.777Z,6.83
2019-03-28T12:36:12.628Z,6.95
2019-03-28T12:38:41.479Z,6.25
2019-03-28T12:41:13.262Z,5.85
2019-03-28T12:43:42.160Z,5.53
2019-03-28T12:46:13.632Z,5.50
2019-03-28T12:48:42.735Z,6.33
2019-03-28T12:51:11.543Z,6.97
2019-03-28T12:53:43.660Z,6.40
2019-03-28T12:56:14.215Z,7.07
2019-03-28T12:58:45.736Z,6.40
2019-03-28T13:01:14.571Z,6.70
2019-03-28T13:03:45.733Z,6.00
2019-03-28T13:06:13.720Z,6.40
2019-03-28T13:08:42.379Z,5.08
2019-03-28T13:11:10.983Z,6.15
2019-03-28T13:13:39.632Z,5.37
2019-03-28T13:16:08.265Z,6.00
2019-03-28T13:18:36.864Z,5.58
2019-03-28T13:21:13.361Z,5.83
2019-03-28T13:23:35.866Z,5.85
2019-03-28T13:26:04.432Z,5.47
2019-03-28T13:28:33.033Z,5.08
2019-03-28T13:31:01.717Z,5.03
2019-03-28T13:33:30.280Z,5.65
2019-03-28T13:35:59.057Z,5.35
2019-03-28T13:38:27.815Z,5.90
2019-03-28T13:40:56.623Z,5.30
2019-03-28T13:43:25.508Z,5.65
2019-03-28T13:45:54.199Z,5.37
2019-03-28T13:48:23.015Z,5.83
2019-03-28T13:50:54.672Z,5.60
2019-03-28T13:53:22.381Z,6.90
2019-03-28T13:55:52.240Z,6.10
2019-03-28T13:58:21.183Z,6.83
2019-03-28T14:00:50.007Z,6.70
2019-03-28T14:03:18.771Z,8.03
2019-03-28T14:05:47.444Z,7.50
2019-03-28T14:08:16.229Z,5.53
2019-03-28T14:10:44.993Z,6.70
2019-03-28T14:13:13.741Z,6.50
2019-03-28T14:15:42.504Z,5.70
2019-03-28T14:18:11.249Z,6.03
2019-03-28T14:20:39.976Z,5.87
2019-03-28T14:23:08.780Z,6.40
2019-03-28T14:25:37.529Z,8.43
2019-03-28T14:28:06.261Z,6.13
2019-03-28T14:30:34.907Z,5.70
2019-03-28T14:33:11.178Z,6.20
2019-03-28T14:35:33.960Z,6.60
2019-03-28T14:38:02.595Z,6.63
2019-03-28T14:40:31.278Z,6.87
2019-03-28T14:42:59.851Z,5.60
2019-03-28T14:45:28.497Z,5.53
2019-03-28T14:47:57.125Z,5.90
2019-03-28T14:50:37.157Z,6.33
2019-03-28T14:53:06.225Z,6.03
2019-03-28T14:55:36.290Z,6.93
2019-03-28T14:58:06.901Z,6.67
2019-03-28T15:00:47.526Z,6.30
2019-03-28T15:03:25.844Z,6.60
2019-03-28T15:05:46.888Z,6.97
2019-03-28T15:08:15.598Z,6.50
2019-03-28T15:10:44.415Z,5.90
2019-03-28T15:13:13.174Z,7.53
2019-03-28T15:15:41.731Z,5.17
2019-03-28T15:18:10.400Z,5.23
2019-03-28T15:20:38.979Z,5.67
2019-03-28T15:23:07.603Z,7.77
2019-03-28T15:25:36.229Z,6.20
2019-03-28T15:28:04.896Z,7.60
2019-03-28T15:30:33.520Z,8.23
2019-03-28T15:33:02.206Z,6.80
2019-03-28T15:35:30.757Z,6.30
2019-03-28T15:37:59.391Z,6.13
2019-03-28T15:40:28.063Z,6.10
2019-03-28T15:42:56.703Z,5.73
2019-03-28T15:45:25.953Z,5.70
2019-03-28T15:47:54.562Z,5.83
2019-03-28T15:50:23.187Z,5.50
2019-03-28T15:52:51.782Z,5.70
2019-03-28T15:55:20.416Z,5.53
2019-03-28T15:57:49.065Z,5.80
2019-03-28T16:00:18.393Z,5.23
2019-03-28T16:02:47.322Z,5.70
2019-03-28T16:05:16.010Z,5.73
2019-03-28T16:07:44.577Z,5.43
2019-03-28T16:10:15.210Z,6.17
2019-03-28T16:12:43.972Z,6.30
2019-03-28T16:15:13.140Z,7.27
2019-03-28T16:17:41.766Z,7.37
2019-03-28T16:20:11.136Z,8.10
2019-03-28T16:22:39.687Z,7.00
2019-03-28T16:25:08.496Z,8.00
2019-03-28T16:27:37.038Z,7.20
2019-03-28T16:30:08.630Z,7.33
2019-03-28T16:32:37.260Z,6.77
2019-03-28T16:35:07.590Z,6.17
2019-03-28T16:37:36.200Z,7.40
2019-03-28T16:40:07.249Z,6.20
2019-03-28T16:42:35.796Z,7.00
2019-03-28T16:45:07.118Z,7.67
2019-03-28T16:47:35.747Z,7.30
2019-03-28T16:50:05.072Z,7.00
2019-03-28T16:52:33.627Z,7.13
2019-03-28T16:55:08.270Z,7.30
2019-03-28T16:57:36.944Z,7.70
2019-03-28T17:00:14.033Z,7.83
2019-03-28T17:02:42.707Z,8.13
2019-03-28T17:05:11.531Z,6.67
2019-03-28T17:07:40.165Z,7.33
2019-03-28T17:10:09.393Z,27.97
2019-03-28T17:12:37.929Z,24.90
2019-03-28T17:15:08.662Z,9.03
2019-03-28T17:17:38.481Z,12.10
2019-03-28T17:20:07.851Z,11.50
2019-03-28T17:22:36.478Z,9.43
2019-03-28T17:25:06.629Z,7.80
2019-03-28T17:27:35.178Z,8.10
2019-03-28T17:30:07.173Z,8.63
2019-03-28T17:32:36.750Z,9.53
2019-03-28T17:35:06.258Z,9.00
2019-03-28T17:37:40.929Z,9.37
2019-03-28T17:40:09.661Z,9.40
2019-03-28T17:42:41.022Z,9.33
2019-03-28T17:45:09.748Z,11.07
2019-03-28T17:47:38.458Z,20.20
2019-03-28T17:50:10.272Z,32.27
2019-03-28T17:52:38.959Z,32.43
2019-03-28T17:55:07.777Z,30.93
2019-03-28T17:57:36.579Z,45.30
2019-03-28T18:00:08.871Z,58.57
2019-03-28T18:02:37.574Z,50.00
2019-03-28T18:05:09.713Z,45.03
2019-03-28T18:07:37.524Z,45.90
2019-03-28T18:10:07.556Z,53.63
2019-03-28T18:12:36.197Z,46.07
2019-03-28T18:15:08.542Z,26.23
2019-03-28T18:17:37.219Z,29.70
2019-03-28T18:20:09.415Z,34.80
2019-03-28T18:22:38.163Z,34.07
2019-03-28T18:25:09.849Z,34.00
2019-03-28T18:27:38.480Z,34.67
2019-03-28T18:30:08.660Z,37.47
2019-03-28T18:32:39.435Z,30.67
2019-03-28T18:35:08.447Z,28.17
2019-03-28T18:37:37.199Z,30.30
2019-03-28T18:40:07.578Z,30.83
2019-03-28T18:42:36.219Z,28.17
2019-03-28T18:45:08.133Z,27.37
2019-03-28T18:47:36.783Z,28.27
2019-03-28T18:50:07.831Z,32.33
2019-03-28T18:52:36.459Z,30.87
2019-03-28T18:55:06.898Z,37.13
2019-03-28T18:57:38.240Z,21.07
2019-03-28T19:00:08.877Z,24.07
2019-03-28T19:02:37.524Z,22.37
2019-03-28T19:05:19.170Z,23.53
2019-03-28T19:07:37.011Z,18.67
2019-03-28T19:10:07.104Z,18.83
2019-03-28T19:12:35.775Z,20.10
2019-03-28T19:15:06.013Z,23.77
2019-03-28T19:17:34.648Z,26.50
2019-03-28T19:20:04.927Z,27.10
2019-03-28T19:22:33.562Z,28.13
2019-03-28T19:25:02.203Z,23.37
2019-03-28T19:27:30.954Z,22.73
2019-03-28T19:29:59.440Z,25.43
2019-03-28T19:32:29.863Z,25.90
2019-03-28T19:34:58.821Z,27.07
2019-03-28T19:37:29.251Z,29.17
2019-03-28T19:39:57.926Z,30.67
2019-03-28T19:42:26.557Z,31.13
2019-03-28T19:44:55.529Z,31.60
2019-03-28T19:47:24.164Z,36.37
2019-03-28T19:49:52.795Z,41.50
2019-03-28T19:52:21.433Z,42.83
2019-03-28T19:54:50.080Z,37.97
2019-03-28T19:57:21.761Z,25.10
2019-03-28T19:59:50.463Z,23.27
2019-03-28T20:02:19.843Z,23.70
2019-03-28T20:04:48.518Z,33.07
2019-03-28T20:07:21.746Z,28.90
2019-03-28T20:09:47.484Z,30.40
2019-03-28T20:12:16.120Z,22.87
2019-03-28T20:14:44.759Z,20.77
2019-03-28T20:17:13.409Z,20.30
2019-03-28T20:19:42.090Z,20.03
2019-03-28T20:22:10.725Z,21.13
2019-03-28T20:24:40.095Z,19.53
2019-03-28T20:27:09.405Z,18.10
2019-03-28T20:29:40.004Z,16.50
2019-03-28T20:32:09.795Z,13.73
2019-03-28T20:34:38.512Z,13.17
2019-03-28T20:37:08.730Z,12.30
2019-03-28T20:39:37.434Z,13.23
2019-03-28T20:42:06.078Z,13.37
2019-03-28T20:44:34.656Z,12.67
2019-03-28T20:47:03.279Z,13.10
2019-03-28T20:49:31.845Z,11.10
2019-03-28T20:52:00.522Z,10.07
2019-03-28T20:54:29.013Z,10.43
2019-03-28T20:56:58.028Z,10.43
2019-03-28T20:59:29.752Z,9.43
2019-03-28T21:01:58.392Z,9.20
2019-03-28T21:04:31.498Z,8.83
2019-03-28T21:06:58.772Z,8.07
2019-03-28T21:09:27.453Z,7.60
2019-03-28T21:11:58.807Z,7.53
2019-03-28T21:14:28.023Z,8.13
2019-03-28T21:16:58.318Z,7.03
2019-03-28T21:19:27.074Z,8.07
2019-03-28T21:21:55.752Z,7.93
2019-03-28T21:24:24.392Z,7.77
2019-03-28T21:26:53.066Z,6.43
2019-03-28T21:29:21.754Z,7.47
2019-03-28T21:31:51.900Z,7.17
2019-03-28T21:34:21.134Z,7.57
2019-03-28T21:36:49.842Z,6.47
2019-03-28T21:39:18.375Z,7.17
2019-03-28T21:41:47.005Z,6.30
2019-03-28T21:44:15.552Z,7.47
2019-03-28T21:46:44.127Z,7.77
2019-03-28T21:49:12.790Z,7.60
2019-03-28T21:51:41.275Z,7.23
2019-03-28T21:54:09.952Z,8.30
2019-03-28T21:56:41.299Z,6.97
2019-03-28T21:59:08.852Z,7.37
2019-03-28T22:01:40.490Z,6.63
2019-03-28T22:04:09.276Z,6.90
2019-03-28T22:06:43.191Z,6.17
2019-03-28T22:09:08.222Z,6.57
2019-03-28T22:11:39.545Z,7.17
2019-03-28T22:14:08.085Z,6.57
2019-03-28T22:16:43.858Z,6.87
2019-03-28T22:19:12.571Z,5.77
2019-03-28T22:21:41.192Z,5.57
2019-03-28T22:24:09.796Z,6.37
2019-03-28T22:26:38.501Z,6.10
2019-03-28T22:29:07.125Z,5.50
2019-03-28T22:31:35.773Z,6.50
2019-03-28T22:34:04.403Z,5.97
2019-03-28T22:36:32.965Z,5.93
2019-03-28T22:39:01.650Z,7.17
2019-03-28T22:41:30.317Z,7.00
2019-03-28T22:43:59.145Z,7.63
2019-03-28T22:46:27.718Z,6.33
2019-03-28T22:48:56.407Z,6.63
2019-03-28T22:51:25.045Z,6.13
2019-03-28T22:53:53.665Z,6.63
2019-03-28T22:56:22.938Z,6.33
2019-03-28T22:58:52.256Z,5.37
2019-03-28T23:01:22.253Z,6.00
2019-03-28T23:03:51.120Z,6.87
2019-03-28T23:06:20.084Z,7.00
2019-03-28T23:08:49.581Z,7.77
2019-03-28T23:11:18.538Z,6.97
2019-03-28T23:13:47.403Z,7.33
2019-03-28T23:16:16.665Z,6.93
2019-03-28T23:18:45.766Z,7.33
2019-03-28T23:21:15.790Z,7.27
2019-03-28T23:23:46.341Z,6.40
2019-03-28T23:26:15.230Z,5.80
2019-03-28T23:28:44.223Z,6.50
2019-03-28T23:31:13.779Z,7.87
2019-03-28T23:33:42.553Z,8.17
2019-03-28T23:36:11.445Z,6.80
2019-03-28T23:38:40.218Z,6.53
2019-03-28T23:41:09.113Z,7.57
2019-03-28T23:43:38.027Z,8.07
2019-03-28T23:46:06.927Z,7.30
2019-03-28T23:48:35.788Z,7.27
2019-03-28T23:51:05.064Z,7.23
2019-03-28T23:53:34.312Z,6.97
2019-03-28T23:56:05.445Z,6.83
2019-03-28T23:58:34.251Z,8.50
